createdAt,value
2019-05-06T00:00:27.751Z,11.00
2019-05-06T00:02:57.652Z,10.40
2019-05-06T00:05:27.545Z,11.40
2019-05-06T00:07:57.513Z,9.60
2019-05-06T00:10:31.249Z,9.40
2019-05-06T00:13:01.173Z,12.00
2019-05-06T00:15:31.577Z,14.80
2019-05-06T00:18:01.457Z,10.40
2019-05-06T00:20:31.310Z,10.80
2019-05-06T00:23:06.665Z,10.00
2019-05-06T00:25:44.216Z,9.40
2019-05-06T00:28:24.785Z,11.00
2019-05-06T00:31:09.611Z,13.00
2019-05-06T00:33:27.662Z,13.00
2019-05-06T00:36:00.353Z,9.20
2019-05-06T00:38:29.123Z,12.00
2019-05-06T00:41:04.049Z,10.60
2019-05-06T00:43:34.565Z,12.00
2019-05-06T00:46:04.843Z,13.20
2019-05-06T00:48:35.760Z,12.00
2019-05-06T00:51:05.585Z,13.60
2019-05-06T00:53:37.338Z,12.00
2019-05-06T00:56:07.217Z,11.40
2019-05-06T00:58:37.177Z,14.00
2019-05-06T01:01:07.211Z,9.20
2019-05-06T01:03:37.135Z,9.60
2019-05-06T01:06:07.024Z,10.00
2019-05-06T01:08:36.881Z,11.40
2019-05-06T01:11:07.016Z,11.00
2019-05-06T01:13:54.631Z,10.50
2019-05-06T01:16:24.947Z,11.40
2019-05-06T01:18:55.064Z,11.00
2019-05-06T01:21:24.962Z,9.00
2019-05-06T01:23:54.820Z,13.20
2019-05-06T01:26:24.652Z,16.40
2019-05-06T01:28:54.779Z,11.50
2019-05-06T01:31:38.869Z,11.20
2019-05-06T01:33:56.479Z,11.00
2019-05-06T01:36:26.389Z,9.00
2019-05-06T01:39:07.215Z,10.40
2019-05-06T01:41:46.001Z,11.00
2019-05-06T01:44:15.959Z,11.60
2019-05-06T01:46:45.816Z,13.40
2019-05-06T01:49:15.673Z,13.50
2019-05-06T01:51:45.481Z,11.20
2019-05-06T01:54:15.578Z,11.00
2019-05-06T01:56:45.465Z,11.20
2019-05-06T01:59:15.365Z,11.80
2019-05-06T02:01:56.922Z,16.00
2019-05-06T02:04:16.817Z,13.00
2019-05-06T02:06:46.735Z,13.00
2019-05-06T02:09:16.736Z,11.00
2019-05-06T02:11:48.112Z,14.40
2019-05-06T02:14:18.128Z,14.00
2019-05-06T02:16:47.980Z,12.60
2019-05-06T02:19:18.804Z,14.25
2019-05-06T02:22:00.338Z,13.00
2019-05-06T02:24:36.169Z,15.00
2019-05-06T02:27:06.888Z,14.00
2019-05-06T02:29:43.447Z,13.00
2019-05-06T02:32:41.549Z,11.20
2019-05-06T02:35:20.294Z,16.00
2019-05-06T02:37:50.142Z,13.00
2019-05-06T02:40:24.864Z,14.00
2019-05-06T02:42:54.727Z,13.00
2019-05-06T02:45:24.660Z,14.00
2019-05-06T02:48:19.242Z,12.00
2019-05-06T02:51:13.124Z,12.00
2019-05-06T02:53:42.925Z,18.00
2019-05-06T02:56:13.469Z,14.00
2019-05-06T02:58:43.889Z,13.00
2019-05-06T03:01:13.829Z,14.00
2019-05-06T03:03:43.879Z,13.00
2019-05-06T03:06:13.965Z,14.20
2019-05-06T03:08:43.855Z,14.60
2019-05-06T03:11:13.980Z,18.40
2019-05-06T03:13:44.218Z,14.00
2019-05-06T03:16:14.486Z,16.00
2019-05-06T03:18:44.453Z,14.00
2019-05-06T03:21:48.438Z,13.00
2019-05-06T03:24:36.002Z,13.00
2019-05-06T03:27:05.928Z,14.40
2019-05-06T03:29:35.751Z,12.40
2019-05-06T03:32:07.405Z,13.40
2019-05-06T03:34:57.063Z,12.40
2019-05-06T03:37:08.639Z,15.00
2019-05-06T03:39:38.622Z,18.00
2019-05-06T03:42:08.536Z,14.40
2019-05-06T03:44:40.075Z,116.00
2019-05-06T03:47:38.066Z,36.75
2019-05-06T03:50:07.827Z,24.00
2019-05-06T03:52:37.738Z,21.00
2019-05-06T03:55:07.647Z,41.50
2019-05-06T03:57:38.032Z,25.60
2019-05-06T04:00:08.917Z,28.40
2019-05-06T04:02:39.732Z,44.20
2019-05-06T04:05:13.306Z,28.60
2019-05-06T04:07:45.817Z,20.60
2019-05-06T04:10:14.535Z,24.00
2019-05-06T04:12:45.427Z,31.00
2019-05-06T04:15:15.332Z,24.00
2019-05-06T04:17:54.622Z,27.60
2019-05-06T04:20:43.728Z,22.40
2019-05-06T04:23:34.382Z,24.00
2019-05-06T04:26:13.467Z,25.60
2019-05-06T04:28:43.635Z,23.20
2019-05-06T04:31:13.543Z,25.00
2019-05-06T04:33:55.479Z,30.20
2019-05-06T04:36:15.050Z,23.80
2019-05-06T04:38:44.921Z,26.00
2019-05-06T04:41:14.839Z,28.20
2019-05-06T04:43:44.743Z,22.80
2019-05-06T04:46:16.891Z,15.00
2019-05-06T04:48:46.187Z,19.80
2019-05-06T04:51:16.074Z,23.50
2019-05-06T04:53:45.973Z,20.60
2019-05-06T04:56:15.851Z,20.80
2019-05-06T04:58:45.701Z,16.50
2019-05-06T05:01:15.926Z,25.60
2019-05-06T05:03:46.077Z,18.00
2019-05-06T05:06:16.019Z,13.40
2019-05-06T05:08:45.861Z,18.50
2019-05-06T05:11:25.509Z,15.75
2019-05-06T05:14:06.106Z,17.00
2019-05-06T05:16:58.243Z,15.25
2019-05-06T05:19:29.057Z,16.00
2019-05-06T05:22:08.114Z,16.00
2019-05-06T05:24:38.060Z,16.00
2019-05-06T05:27:07.956Z,13.00
2019-05-06T05:29:37.854Z,17.00
2019-05-06T05:32:07.688Z,18.20
2019-05-06T05:34:40.609Z,16.00
2019-05-06T05:37:09.299Z,15.00
2019-05-06T05:39:39.128Z,16.20
2019-05-06T05:42:24.600Z,15.00
2019-05-06T05:44:54.836Z,17.00
2019-05-06T05:47:24.781Z,14.00
2019-05-06T05:50:13.314Z,15.40
2019-05-06T05:52:43.347Z,14.20
2019-05-06T05:55:13.272Z,16.20
2019-05-06T05:57:43.322Z,13.00
2019-05-06T06:00:13.446Z,14.80
2019-05-06T06:02:43.936Z,12.60
2019-05-06T06:05:13.795Z,19.75
2019-05-06T06:07:43.648Z,12.50
2019-05-06T06:10:22.802Z,13.40
2019-05-06T06:12:52.946Z,13.00
2019-05-06T06:16:02.748Z,7.00
2019-05-06T06:18:43.080Z,13.00
2019-05-06T06:21:34.897Z,13.00
2019-05-06T06:24:10.022Z,13.60
2019-05-06T06:26:39.968Z,11.20
2019-05-06T06:29:09.850Z,9.40
2019-05-06T06:32:03.152Z,15.00
2019-05-06T06:34:38.168Z,11.00
2019-05-06T06:37:26.088Z,13.40
2019-05-06T06:39:56.113Z,11.00
2019-05-06T06:42:25.966Z,11.60
2019-05-06T06:44:55.891Z,9.60
2019-05-06T06:47:25.736Z,10.00
2019-05-06T06:49:55.569Z,10.00
2019-05-06T06:52:25.415Z,12.20
2019-05-06T06:54:56.299Z,10.00
2019-05-06T06:57:42.193Z,10.40
2019-05-06T07:00:26.879Z,10.00
2019-05-06T07:03:02.695Z,8.00
2019-05-06T07:05:52.745Z,13.80
2019-05-06T07:08:34.351Z,8.20
2019-05-06T07:10:54.469Z,9.00
2019-05-06T07:13:24.489Z,7.00
2019-05-06T07:15:54.309Z,8.00
2019-05-06T07:18:24.583Z,6.50
2019-05-06T07:21:14.013Z,7.40
2019-05-06T07:23:44.101Z,7.60
2019-05-06T07:26:15.641Z,8.00
2019-05-06T07:28:45.569Z,7.60
2019-05-06T07:31:22.388Z,5.40
2019-05-06T07:33:47.008Z,8.00
2019-05-06T07:36:16.897Z,6.60
2019-05-06T07:38:52.389Z,8.00
2019-05-06T07:41:27.569Z,7.00
2019-05-06T07:44:14.252Z,5.60
2019-05-06T07:47:13.367Z,6.00
2019-05-06T07:49:43.845Z,6.40
2019-05-06T07:52:17.062Z,5.00
2019-05-06T07:54:45.340Z,6.60
2019-05-06T07:57:15.280Z,7.00
2019-05-06T07:59:45.279Z,7.00
2019-05-06T08:02:15.314Z,5.00
2019-05-06T08:04:45.325Z,5.00
2019-05-06T08:07:15.224Z,6.40
2019-05-06T08:09:45.227Z,5.00
2019-05-06T08:12:15.124Z,4.40
2019-05-06T08:14:45.075Z,5.00
2019-05-06T08:17:24.222Z,4.75
2019-05-06T08:19:54.217Z,4.60
2019-05-06T08:22:45.465Z,6.00
2019-05-06T08:25:15.490Z,12.00
2019-05-06T08:27:45.407Z,5.00
2019-05-06T08:30:15.378Z,4.00
2019-05-06T08:32:45.256Z,5.00
2019-05-06T08:35:16.936Z,4.00
2019-05-06T08:37:47.460Z,4.00
2019-05-06T08:40:17.492Z,5.00
2019-05-06T08:42:47.448Z,4.00
2019-05-06T08:45:17.824Z,4.00
2019-05-06T08:47:47.732Z,6.80
2019-05-06T08:50:32.486Z,4.40
2019-05-06T08:53:25.368Z,4.00
2019-05-06T08:55:55.906Z,5.00
2019-05-06T08:58:43.866Z,6.60
2019-05-06T09:01:22.433Z,4.00
2019-05-06T09:04:06.357Z,5.60
2019-05-06T09:06:29.936Z,4.00
2019-05-06T09:08:56.992Z,5.00
2019-05-06T09:11:27.111Z,6.00
2019-05-06T09:13:57.095Z,4.00
2019-05-06T09:16:27.032Z,5.00
2019-05-06T09:18:56.986Z,3.00
2019-05-06T09:21:26.929Z,3.00
2019-05-06T09:23:57.845Z,5.40
2019-05-06T09:26:46.830Z,5.00
2019-05-06T09:29:26.415Z,4.00
2019-05-06T09:31:58.100Z,4.00
2019-05-06T09:34:37.120Z,4.75
2019-05-06T09:37:14.416Z,6.80
2019-05-06T09:39:44.925Z,4.00
2019-05-06T09:42:16.015Z,4.00
2019-05-06T09:44:50.248Z,5.00
2019-05-06T09:47:36.942Z,5.00
2019-05-06T09:50:09.325Z,5.00
2019-05-06T09:52:39.185Z,5.00
2019-05-06T09:55:15.525Z,7.60
2019-05-06T09:58:05.095Z,5.00
2019-05-06T10:00:38.761Z,4.80
2019-05-06T10:03:08.681Z,7.00
2019-05-06T10:05:38.644Z,4.00
2019-05-06T10:08:08.601Z,3.00
2019-05-06T10:10:52.938Z,4.00
2019-05-06T10:13:12.663Z,3.00
2019-05-06T10:15:42.789Z,3.00
2019-05-06T10:18:13.547Z,25.60
2019-05-06T10:20:44.494Z,8.00
2019-05-06T10:23:14.842Z,5.60
2019-05-06T10:25:44.742Z,39.60
2019-05-06T10:28:25.924Z,27.60
2019-05-06T10:30:55.913Z,5.60
2019-05-06T10:33:26.897Z,38.00
2019-05-06T10:36:02.572Z,5.00
2019-05-06T10:38:52.946Z,6.00
2019-05-06T10:41:23.560Z,6.25
2019-05-06T10:44:16.632Z,10.40
2019-05-06T10:46:46.538Z,11.80
2019-05-06T10:49:16.497Z,5.00
2019-05-06T10:52:02.221Z,3.00
2019-05-06T10:54:32.373Z,6.00
2019-05-06T10:57:17.605Z,6.00
2019-05-06T10:59:47.587Z,5.50
2019-05-06T11:02:29.420Z,4.00
2019-05-06T11:04:59.414Z,4.00
2019-05-06T11:07:32.138Z,4.00
2019-05-06T11:10:02.704Z,3.60
2019-05-06T11:12:32.712Z,4.00
2019-05-06T11:15:03.427Z,4.00
2019-05-06T11:17:33.633Z,5.00
2019-05-06T11:20:06.568Z,18.00
2019-05-06T11:22:35.167Z,4.00
2019-05-06T11:25:05.343Z,5.00
2019-05-06T11:27:39.494Z,4.40
2019-05-06T11:30:10.328Z,4.60
2019-05-06T11:32:59.252Z,4.00
2019-05-06T11:35:48.194Z,6.00
2019-05-06T11:38:19.281Z,3.50
2019-05-06T11:40:49.201Z,6.00
2019-05-06T11:43:22.249Z,5.00
2019-05-06T11:45:52.244Z,4.50
2019-05-06T11:48:22.548Z,3.00
2019-05-06T11:50:55.601Z,4.00
2019-05-06T11:53:25.532Z,6.00
2019-05-06T11:55:55.465Z,4.00
2019-05-06T11:58:45.875Z,5.00
2019-05-06T12:01:20.501Z,6.00
2019-05-06T12:03:52.170Z,6.00
2019-05-06T12:06:22.813Z,5.20
2019-05-06T12:08:53.033Z,5.20
2019-05-06T12:11:23.822Z,4.20
2019-05-06T12:13:53.893Z,4.00
2019-05-06T12:16:26.190Z,6.00
2019-05-06T12:18:55.615Z,7.00
2019-05-06T12:21:25.534Z,5.00
2019-05-06T12:23:55.432Z,7.00
2019-05-06T12:26:25.308Z,23.75
2019-05-06T12:28:55.221Z,6.00
2019-05-06T12:31:25.137Z,6.00
2019-05-06T12:33:55.037Z,4.00
2019-05-06T12:36:25.022Z,3.60
2019-05-06T12:39:16.252Z,3.00
2019-05-06T12:42:10.260Z,3.60
2019-05-06T12:44:42.065Z,4.00
2019-05-06T12:47:33.181Z,7.00
2019-05-06T12:50:03.154Z,4.80
2019-05-06T12:52:33.110Z,5.00
2019-05-06T12:55:17.312Z,5.50
2019-05-06T12:57:34.871Z,4.40
2019-05-06T13:00:06.084Z,4.00
2019-05-06T13:02:36.265Z,6.00
2019-05-06T13:05:06.454Z,16.75
2019-05-06T13:07:46.985Z,10.00
2019-05-06T13:10:23.117Z,9.00
2019-05-06T13:13:04.285Z,8.00
2019-05-06T13:15:34.161Z,10.00
2019-05-06T13:18:07.226Z,7.00
2019-05-06T13:20:36.790Z,30.40
2019-05-06T13:23:28.666Z,5.40
2019-05-06T13:25:58.693Z,7.00
2019-05-06T13:28:33.253Z,6.00
2019-05-06T13:31:16.080Z,4.00
2019-05-06T13:33:59.565Z,5.00
2019-05-06T13:36:29.707Z,5.00
2019-05-06T13:39:13.490Z,10.00
2019-05-06T13:41:32.858Z,7.00
2019-05-06T13:44:13.446Z,14.40
2019-05-06T13:46:46.829Z,5.20
2019-05-06T13:49:32.343Z,3.00
2019-05-06T13:52:05.012Z,5.00
2019-05-06T13:54:35.227Z,4.60
2019-05-06T13:57:05.154Z,5.00
2019-05-06T13:59:36.944Z,4.00
2019-05-06T14:02:44.149Z,3.00
2019-05-06T14:05:14.240Z,3.00
2019-05-06T14:07:44.243Z,5.00
2019-05-06T14:10:14.290Z,4.00
2019-05-06T14:12:44.317Z,4.00
2019-05-06T14:15:14.328Z,5.00
2019-05-06T14:17:44.344Z,5.40
2019-05-06T14:20:15.041Z,4.50
2019-05-06T14:22:45.071Z,4.00
2019-05-06T14:25:33.306Z,6.00
2019-05-06T14:28:12.344Z,5.00
2019-05-06T14:30:54.113Z,5.00
2019-05-06T14:33:24.120Z,6.00
2019-05-06T14:35:53.999Z,6.00
2019-05-06T14:38:24.620Z,6.00
2019-05-06T14:41:08.130Z,5.00
2019-05-06T14:43:37.061Z,7.40
2019-05-06T14:46:07.309Z,6.00
2019-05-06T14:48:38.325Z,6.00
2019-05-06T14:51:09.293Z,5.00
2019-05-06T14:53:39.349Z,4.00
2019-05-06T14:56:18.279Z,4.20
2019-05-06T14:59:04.692Z,6.00
2019-05-06T15:01:35.610Z,5.60
2019-05-06T15:04:05.805Z,6.00
2019-05-06T15:06:35.748Z,6.20
2019-05-06T15:09:09.633Z,6.00
2019-05-06T15:11:39.595Z,6.00
2019-05-06T15:14:09.612Z,4.40
2019-05-06T15:16:42.102Z,7.00
2019-05-06T15:19:12.849Z,4.50
2019-05-06T15:21:42.981Z,6.00
2019-05-06T15:24:14.355Z,9.00
2019-05-06T15:26:44.645Z,6.00
2019-05-06T15:29:14.636Z,5.00
2019-05-06T15:32:04.587Z,5.00
2019-05-06T15:34:42.286Z,6.50
2019-05-06T15:37:26.773Z,6.50
2019-05-06T15:39:56.753Z,6.00
2019-05-06T15:42:26.654Z,8.00
2019-05-06T15:44:56.595Z,5.00
2019-05-06T15:47:26.495Z,4.75
2019-05-06T15:49:56.409Z,4.00
2019-05-06T15:52:26.300Z,3.00
2019-05-06T15:54:56.229Z,3.00
2019-05-06T15:57:26.153Z,5.00
2019-05-06T15:59:56.080Z,2.00
2019-05-06T16:02:26.001Z,2.00
2019-05-06T16:04:55.995Z,2.00
2019-05-06T16:07:26.341Z,2.00
2019-05-06T16:09:56.322Z,1.20
2019-05-06T16:12:26.285Z,2.00
2019-05-06T16:14:56.276Z,2.00
2019-05-06T16:17:26.183Z,1.80
2019-05-06T16:19:56.824Z,2.00
2019-05-06T16:22:26.793Z,1.50
2019-05-06T16:25:02.721Z,2.20
2019-05-06T16:27:32.744Z,2.00
2019-05-06T16:30:03.540Z,3.00
2019-05-06T16:32:33.770Z,1.25
2019-05-06T16:35:03.687Z,1.00
2019-05-06T16:37:33.586Z,2.00
2019-05-06T16:40:03.557Z,2.60
2019-05-06T16:42:35.280Z,2.00
2019-05-06T16:45:06.884Z,3.00
2019-05-06T16:47:37.662Z,2.00
2019-05-06T16:50:10.080Z,2.00
2019-05-06T16:52:40.037Z,1.60
2019-05-06T16:55:15.248Z,2.40
2019-05-06T16:57:52.483Z,3.20
2019-05-06T17:00:23.928Z,2.00
2019-05-06T17:03:03.757Z,3.00
2019-05-06T17:05:52.044Z,3.00
2019-05-06T17:08:23.449Z,3.00
2019-05-06T17:10:53.599Z,2.00
2019-05-06T17:13:23.580Z,2.20
2019-05-06T17:15:53.555Z,2.00
2019-05-06T17:18:23.483Z,2.00
2019-05-06T17:20:53.441Z,1.80
2019-05-06T17:23:23.379Z,1.50
2019-05-06T17:25:53.330Z,1.50
2019-05-06T17:28:42.324Z,1.00
2019-05-06T17:31:42.422Z,2.00
2019-05-06T17:34:16.093Z,1.00
2019-05-06T17:36:46.321Z,2.00
2019-05-06T17:39:16.214Z,1.40
2019-05-06T17:41:49.148Z,2.00
2019-05-06T17:44:19.304Z,3.00
2019-05-06T17:47:02.675Z,1.00
2019-05-06T17:49:32.972Z,1.00
2019-05-06T17:52:13.616Z,1.00
2019-05-06T17:54:43.516Z,2.00
2019-05-06T17:57:13.915Z,2.00
2019-05-06T17:59:43.869Z,1.00
2019-05-06T18:02:18.915Z,2.20
2019-05-06T18:04:47.924Z,1.00
2019-05-06T18:07:17.936Z,1.00
2019-05-06T18:09:47.917Z,2.00
2019-05-06T18:12:19.500Z,1.00
2019-05-06T18:14:49.483Z,1.00
2019-05-06T18:17:19.480Z,3.00
2019-05-06T18:19:49.509Z,2.00
2019-05-06T18:22:19.468Z,2.00
2019-05-06T18:24:49.406Z,3.00
2019-05-06T18:27:19.375Z,1.00
2019-05-06T18:29:49.289Z,2.00
2019-05-06T18:32:20.196Z,2.00
2019-05-06T18:34:50.129Z,2.00
2019-05-06T18:37:20.097Z,2.75
2019-05-06T18:39:50.008Z,2.00
2019-05-06T18:42:22.903Z,2.50
2019-05-06T18:44:51.545Z,2.40
2019-05-06T18:47:21.532Z,3.00
2019-05-06T18:49:52.332Z,2.00
2019-05-06T18:52:22.984Z,2.60
2019-05-06T18:54:53.021Z,2.00
2019-05-06T18:57:23.052Z,1.00
2019-05-06T18:59:53.417Z,1.00
2019-05-06T19:02:23.562Z,2.00
2019-05-06T19:04:59.109Z,1.20
2019-05-06T19:07:29.060Z,1.00
2019-05-06T19:10:03.298Z,2.00
2019-05-06T19:12:40.527Z,1.00
2019-05-06T19:15:05.221Z,2.00
2019-05-06T19:17:35.141Z,1.00
2019-05-06T19:20:05.244Z,2.00
2019-05-06T19:22:35.145Z,1.00
2019-05-06T19:25:05.086Z,1.00
2019-05-06T19:27:34.993Z,1.00
2019-05-06T19:30:06.018Z,2.50
2019-05-06T19:32:35.907Z,1.00
2019-05-06T19:35:05.894Z,1.75
2019-05-06T19:37:35.894Z,2.00
2019-05-06T19:40:06.253Z,2.00
2019-05-06T19:42:46.371Z,3.00
2019-05-06T19:45:08.872Z,2.00
2019-05-06T19:47:38.772Z,2.00
2019-05-06T19:50:08.701Z,2.00
2019-05-06T19:52:38.595Z,2.00
2019-05-06T19:55:08.540Z,3.80
2019-05-06T19:57:38.523Z,3.00
2019-05-06T20:00:08.549Z,4.00
2019-05-06T20:02:38.737Z,4.00
2019-05-06T20:05:16.056Z,4.00
2019-05-06T20:07:53.734Z,18.00
2019-05-06T20:10:32.886Z,4.00
2019-05-06T20:13:05.279Z,3.00
2019-05-06T20:15:43.772Z,5.00
2019-05-06T20:18:13.660Z,3.00
2019-05-06T20:20:43.576Z,5.60
2019-05-06T20:23:13.472Z,4.00
2019-05-06T20:25:44.855Z,7.00
2019-05-06T20:28:16.048Z,3.00
2019-05-06T20:30:45.984Z,3.00
2019-05-06T20:33:15.905Z,3.50
2019-05-06T20:35:45.812Z,3.00
2019-05-06T20:38:15.777Z,3.00
2019-05-06T20:40:45.806Z,3.00
2019-05-06T20:43:20.419Z,2.20
2019-05-06T20:45:47.469Z,5.00
2019-05-06T20:48:17.452Z,2.20
2019-05-06T20:50:47.435Z,4.00
2019-05-06T20:53:17.449Z,3.00
2019-05-06T20:55:47.504Z,3.20
2019-05-06T20:58:17.464Z,4.00
2019-05-06T21:00:47.499Z,3.00
2019-05-06T21:03:17.453Z,3.00
2019-05-06T21:05:47.421Z,2.00
2019-05-06T21:08:17.309Z,3.40
2019-05-06T21:10:49.625Z,2.80
2019-05-06T21:13:29.530Z,3.00
2019-05-06T21:15:50.317Z,4.00
2019-05-06T21:18:20.279Z,4.80
2019-05-06T21:20:50.275Z,5.00
2019-05-06T21:23:22.533Z,5.60
2019-05-06T21:25:53.488Z,4.00
2019-05-06T21:28:23.886Z,5.80
2019-05-06T21:30:53.925Z,5.00
2019-05-06T21:33:23.920Z,4.00
2019-05-06T21:35:53.916Z,4.00
2019-05-06T21:38:23.869Z,4.60
2019-05-06T21:40:53.772Z,11.00
2019-05-06T21:43:23.704Z,8.00
2019-05-06T21:45:54.217Z,4.00
2019-05-06T21:48:24.225Z,3.60
2019-05-06T21:50:54.147Z,3.20
2019-05-06T21:53:24.036Z,5.00
2019-05-06T21:55:54.929Z,3.00
2019-05-06T21:58:24.869Z,4.00
2019-05-06T22:01:02.165Z,4.00
2019-05-06T22:03:33.098Z,3.40
2019-05-06T22:06:03.141Z,3.40
2019-05-06T22:08:33.131Z,4.00
2019-05-06T22:11:03.222Z,4.60
2019-05-06T22:13:33.530Z,3.80
2019-05-06T22:16:04.785Z,3.25
2019-05-06T22:18:36.007Z,4.00
2019-05-06T22:21:24.994Z,4.20
2019-05-06T22:24:05.457Z,4.20
2019-05-06T22:26:35.479Z,5.00
2019-05-06T22:29:05.475Z,4.00
2019-05-06T22:31:35.464Z,5.60
2019-05-06T22:34:05.418Z,4.00
2019-05-06T22:36:35.348Z,3.00
2019-05-06T22:39:06.609Z,6.00
2019-05-06T22:41:38.245Z,5.00
2019-05-06T22:44:13.519Z,4.00
2019-05-06T22:46:42.427Z,5.60
2019-05-06T22:49:13.328Z,4.60
2019-05-06T22:51:43.685Z,6.00
2019-05-06T22:54:13.637Z,4.00
2019-05-06T22:56:43.657Z,8.00
2019-05-06T22:59:13.632Z,6.00
2019-05-06T23:02:08.529Z,5.20
2019-05-06T23:04:39.616Z,5.00
2019-05-06T23:07:09.560Z,5.00
2019-05-06T23:09:39.444Z,5.40
2019-05-06T23:12:09.365Z,6.00
2019-05-06T23:14:39.244Z,4.00
2019-05-06T23:17:09.221Z,8.00
2019-05-06T23:19:39.178Z,7.20
2019-05-06T23:22:09.185Z,5.00
2019-05-06T23:24:39.080Z,6.00
2019-05-06T23:27:09.440Z,4.75
2019-05-06T23:29:39.330Z,6.40
2019-05-06T23:32:09.256Z,6.00
2019-05-06T23:34:39.185Z,8.00
2019-05-06T23:37:28.360Z,8.00
2019-05-06T23:40:42.809Z,6.00
2019-05-06T23:43:49.866Z,6.80
2019-05-06T23:46:56.952Z,4.20
2019-05-06T23:50:03.640Z,5.00
2019-05-06T23:53:12.345Z,4.00
2019-05-06T23:56:18.540Z,5.00
2019-05-06T23:58:48.488Z,4.00
